Time;durP1;ratioP1;P1;durP2;ratioP2;P2;SDS_P1;SDS_P2;PMS_P1;PMS_P2;Temp;Humidity;BMP_temperature;BMP_pressure;BME280_temperature;BME280_humidity;BME280_pressure;Samples;Min_cycle;Max_cycle;Signal;HPM_P1;HPM_P2
2020/12/25 00:00:53;;;;;;;12.07;4.40;;;;;;;;;;5004938;28;20186;-73
2020/12/25 00:03:18;;;;;;;14.50;4.27;;;;;;;;;;5014324;28;20197;-73
2020/12/25 00:05:45;;;;;;;13.63;3.77;;;;;;;;;;5003385;28;20247;-70
2020/12/25 00:08:10;;;;;;;10.67;3.70;;;;;;;;;;5012771;28;20187;-71
2020/12/25 00:10:35;;;;;;;15.77;3.60;;;;;;;;;;5004353;28;20720;-71
2020/12/25 00:13:00;;;;;;;11.57;3.93;;;;;;;;;;5016047;28;20236;-71
2020/12/25 00:15:26;;;;;;;12.83;3.53;;;;;;;;;;5005984;28;20186;-71
2020/12/25 00:17:51;;;;;;;15.80;3.57;;;;;;;;;;5009156;28;20206;-71
2020/12/25 00:20:17;;;;;;;17.33;3.70;;;;;;;;;;5013898;28;20221;-71
2020/12/25 00:22:42;;;;;;;11.73;2.90;;;;;;;;;;5003191;28;20194;-71
2020/12/25 00:25:07;;;;;;;16.90;3.17;;;;;;;;;;5014337;28;20235;-71
2020/12/25 00:27:32;;;;;;;21.17;4.00;;;;;;;;;;5002298;28;20201;-71
2020/12/25 00:29:58;;;;;;;15.23;3.40;;;;;;;;;;5011834;28;20260;-72
2020/12/25 00:32:23;;;;;;;11.90;3.17;;;;;;;;;;5000834;28;20306;-72
2020/12/25 00:34:48;;;;;;;17.00;3.40;;;;;;;;;;5017928;28;20782;-72
2020/12/25 00:37:17;;;;;;;10.37;3.13;;;;;;;;;;5007682;28;20616;-72
2020/12/25 00:39:42;;;;;;;13.80;3.87;;;;;;;;;;5018005;28;20278;-72
2020/12/25 00:42:07;;;;;;;16.40;3.07;;;;;;;;;;5002489;28;20191;-72
2020/12/25 00:44:33;;;;;;;18.17;3.50;;;;;;;;;;5013414;28;20182;-72
2020/12/25 00:46:58;;;;;;;17.23;3.47;;;;;;;;;;5014767;28;20190;-72
2020/12/25 00:49:23;;;;;;;18.77;4.30;;;;;;;;;;5005085;28;20244;-72
2020/12/25 00:51:48;;;;;;;10.80;2.37;;;;;;;;;;5017296;28;20217;-72
2020/12/25 00:54:14;;;;;;;14.60;3.67;;;;;;;;;;5012312;28;20190;-72
2020/12/25 00:56:39;;;;;;;10.17;3.00;;;;;;;;;;5018798;28;20229;-72
2020/12/25 00:59:04;;;;;;;18.83;3.43;;;;;;;;;;5010516;28;20233;-72
2020/12/25 01:01:30;;;;;;;10.53;2.83;;;;;;;;;;5017501;28;20276;-72
2020/12/25 01:03:56;;;;;;;16.90;3.37;;;;;;;;;;5011154;28;20190;-72
2020/12/25 01:06:21;;;;;;;10.80;2.60;;;;;;;;;;5019020;28;20776;-72
2020/12/25 01:08:48;;;;;;;11.57;2.87;;;;;;;;;;5010196;28;20198;-72
2020/12/25 01:11:15;;;;;;;18.20;3.23;;;;;;;;;;5016535;28;20205;-72
2020/12/25 01:13:41;;;;;;;16.63;3.37;;;;;;;;;;5012704;28;20194;-72
2020/12/25 01:16:15;;;;;;;22.50;3.47;;;;;;;;;;5020518;28;20244;-72
2020/12/25 01:18:41;;;;;;;13.20;2.83;;;;;;;;;;5021285;28;20194;-72
2020/12/25 01:21:07;;;;;;;16.03;3.07;;;;;;;;;;5010984;28;20190;-72
2020/12/25 01:23:32;;;;;;;9.27;2.77;;;;;;;;;;5026781;28;20193;-72
2020/12/25 01:25:57;;;;;;;14.33;3.40;;;;;;;;;;5009164;28;20592;-72
2020/12/25 01:28:22;;;;;;;12.00;2.80;;;;;;;;;;5014138;28;20240;-72
2020/12/25 01:30:48;;;;;;;12.17;2.90;;;;;;;;;;5009633;28;20333;-72
2020/12/25 01:33:14;;;;;;;14.67;2.63;;;;;;;;;;5021406;28;20186;-72
2020/12/25 01:35:39;;;;;;;16.47;2.83;;;;;;;;;;5009010;28;20599;-72
2020/12/25 01:38:05;;;;;;;17.77;3.23;;;;;;;;;;5019444;28;20672;-72
2020/12/25 01:40:31;;;;;;;14.30;2.63;;;;;;;;;;5011800;28;20740;-72
2020/12/25 01:42:56;;;;;;;16.03;2.70;;;;;;;;;;5022463;28;20239;-72
2020/12/25 01:45:22;;;;;;;16.07;2.90;;;;;;;;;;5012452;28;20277;-73
2020/12/25 01:47:49;;;;;;;21.07;3.17;;;;;;;;;;5020438;28;20223;-72
2020/12/25 01:50:15;;;;;;;14.27;2.40;;;;;;;;;;5022423;28;20194;-72
2020/12/25 01:52:42;;;;;;;19.83;2.90;;;;;;;;;;5012538;28;20198;-72
2020/12/25 01:55:09;;;;;;;14.53;2.37;;;;;;;;;;5021784;28;20194;-72
2020/12/25 01:57:35;;;;;;;19.13;2.93;;;;;;;;;;5013067;28;20244;-72
2020/12/25 02:00:03;;;;;;;11.23;2.30;;;;;;;;;;5022616;28;20657;-72
2020/12/25 02:02:30;;;;;;;8.83;2.10;;;;;;;;;;5014411;28;20213;-72
2020/12/25 02:04:55;;;;;;;15.73;2.57;;;;;;;;;;5021185;28;20202;-72
2020/12/25 02:07:21;;;;;;;14.07;2.43;;;;;;;;;;5015025;28;20209;-72
2020/12/25 02:09:46;;;;;;;16.07;2.93;;;;;;;;;;5019831;28;20190;-72
2020/12/25 02:12:11;;;;;;;13.93;2.33;;;;;;;;;;5015044;28;20269;-72
2020/12/25 02:14:37;;;;;;;11.43;2.17;;;;;;;;;;5022049;28;20559;-72
2020/12/25 02:17:02;;;;;;;18.73;2.70;;;;;;;;;;5013564;28;20193;-72
2020/12/25 02:19:28;;;;;;;12.10;1.80;;;;;;;;;;5019437;28;20685;-73
2020/12/25 02:21:53;;;;;;;14.50;3.13;;;;;;;;;;5021848;28;20281;-72
2020/12/25 02:24:18;;;;;;;19.37;3.27;;;;;;;;;;5012920;28;20206;-72
2020/12/25 02:26:44;;;;;;;8.33;1.47;;;;;;;;;;5020566;28;20178;-72
2020/12/25 02:29:09;;;;;;;15.83;1.47;;;;;;;;;;5013831;28;20239;-72
2020/12/25 02:31:34;;;;;;;13.57;1.67;;;;;;;;;;5021760;28;20244;-72
2020/12/25 02:34:00;;;;;;;10.73;1.77;;;;;;;;;;5014432;28;20213;-72
2020/12/25 02:36:26;;;;;;;12.50;2.70;;;;;;;;;;5021326;28;20273;-72
2020/12/25 02:38:51;;;;;;;10.97;1.60;;;;;;;;;;5011954;28;20218;-72
2020/12/25 02:41:16;;;;;;;10.60;1.37;;;;;;;;;;5021515;28;20216;-72
2020/12/25 02:43:42;;;;;;;10.70;1.43;;;;;;;;;;5012507;28;20222;-72
2020/12/25 02:46:07;;;;;;;12.10;2.67;;;;;;;;;;5021337;28;20178;-72
2020/12/25 02:48:32;;;;;;;14.53;1.67;;;;;;;;;;5018298;28;20247;-72
2020/12/25 02:50:58;;;;;;;14.20;1.40;;;;;;;;;;5013739;28;20186;-72
2020/12/25 02:53:23;;;;;;;10.60;1.30;;;;;;;;;;5021202;28;20760;-72
2020/12/25 02:55:48;;;;;;;5.97;1.30;;;;;;;;;;5012167;28;20269;-72
2020/12/25 02:58:14;;;;;;;9.80;1.30;;;;;;;;;;5019540;28;20244;-72
2020/12/25 03:00:39;;;;;;;11.07;1.20;;;;;;;;;;5012980;28;20190;-72
2020/12/25 03:03:04;;;;;;;8.23;1.10;;;;;;;;;;5020866;28;20237;-72
2020/12/25 03:05:30;;;;;;;8.23;1.07;;;;;;;;;;5013993;28;20277;-72
2020/12/25 03:07:55;;;;;;;5.23;1.30;;;;;;;;;;5020556;28;20210;-72
2020/12/25 03:10:20;;;;;;;8.60;1.03;;;;;;;;;;5011464;28;20198;-72
2020/12/25 03:12:45;;;;;;;5.07;1.00;;;;;;;;;;5019884;28;20244;-72
2020/12/25 03:15:11;;;;;;;9.33;0.87;;;;;;;;;;5016438;28;20257;-71
2020/12/25 03:17:36;;;;;;;10.33;1.63;;;;;;;;;;5016073;28;20222;-72
2020/12/25 03:20:01;;;;;;;5.90;0.83;;;;;;;;;;5020149;28;20184;-71
2020/12/25 03:22:27;;;;;;;4.93;0.70;;;;;;;;;;5012230;28;20205;-71
2020/12/25 03:24:52;;;;;;;4.63;0.60;;;;;;;;;;5016153;28;20654;-71
2020/12/25 03:27:17;;;;;;;5.83;0.60;;;;;;;;;;5007509;28;20186;-72
2020/12/25 03:29:43;;;;;;;6.73;0.73;;;;;;;;;;5020234;28;20297;-72
2020/12/25 03:32:08;;;;;;;6.03;0.53;;;;;;;;;;5008974;28;20570;-71
2020/12/25 03:34:33;;;;;;;2.77;0.50;;;;;;;;;;5022722;28;20765;-71
2020/12/25 03:36:59;;;;;;;3.63;0.60;;;;;;;;;;5011461;28;20193;-71
2020/12/25 03:39:24;;;;;;;9.33;0.80;;;;;;;;;;5021194;28;20595;-71
2020/12/25 03:41:52;;;;;;;8.00;0.73;;;;;;;;;;5010994;28;22380;-71
2020/12/25 03:44:18;;;;;;;6.23;0.70;;;;;;;;;;5020156;28;20284;-71
2020/12/25 03:46:43;;;;;;;6.40;1.70;;;;;;;;;;5020722;28;20416;-71
2020/12/25 03:49:08;;;;;;;4.70;0.40;;;;;;;;;;5011875;28;20186;-71
2020/12/25 03:51:33;;;;;;;6.00;0.50;;;;;;;;;;5020652;28;21455;-71
2020/12/25 03:53:59;;;;;;;4.33;0.60;;;;;;;;;;5013571;28;20188;-71
2020/12/25 03:56:25;;;;;;;1.63;0.30;;;;;;;;;;5020080;28;20261;-71
2020/12/25 03:58:50;;;;;;;2.73;0.40;;;;;;;;;;5011752;28;20213;-71
2020/12/25 04:01:16;;;;;;;2.97;0.40;;;;;;;;;;5020455;28;20653;-71
2020/12/25 04:03:41;;;;;;;9.57;0.57;;;;;;;;;;5012516;28;20201;-72
2020/12/25 04:06:06;;;;;;;6.43;0.70;;;;;;;;;;5018592;28;20569;-71
2020/12/25 04:08:32;;;;;;;4.53;0.57;;;;;;;;;;5011456;28;20193;-71
2020/12/25 04:10:57;;;;;;;10.00;0.70;;;;;;;;;;5019603;28;20280;-71
2020/12/25 04:13:22;;;;;;;3.53;0.70;;;;;;;;;;5011135;28;20216;-72
2020/12/25 04:15:48;;;;;;;4.47;0.60;;;;;;;;;;5021199;28;20186;-71
2020/12/25 04:18:14;;;;;;;4.73;0.40;;;;;;;;;;5020863;28;20198;-72
2020/12/25 04:20:40;;;;;;;6.10;0.60;;;;;;;;;;5012166;28;20194;-71
2020/12/25 04:23:05;;;;;;;5.90;0.40;;;;;;;;;;5020204;28;20202;-71
2020/12/25 04:25:30;;;;;;;3.77;0.60;;;;;;;;;;5011292;28;20665;-71
2020/12/25 04:27:56;;;;;;;3.33;0.57;;;;;;;;;;5022938;28;20194;-71
2020/12/25 04:30:21;;;;;;;4.43;0.60;;;;;;;;;;5014454;28;20206;-71
2020/12/25 04:32:46;;;;;;;3.20;0.53;;;;;;;;;;5022606;28;20193;-71
2020/12/25 04:35:12;;;;;;;4.70;0.73;;;;;;;;;;5015166;28;20651;-71
2020/12/25 04:37:37;;;;;;;4.40;0.70;;;;;;;;;;5024672;28;20220;-71
2020/12/25 04:40:04;;;;;;;4.30;1.00;;;;;;;;;;5015521;28;20194;-71
2020/12/25 04:42:30;;;;;;;7.77;1.87;;;;;;;;;;5023736;28;20289;-71
2020/12/25 04:44:56;;;;;;;7.60;1.87;;;;;;;;;;5022550;28;20190;-71
2020/12/25 04:47:21;;;;;;;4.30;1.83;;;;;;;;;;5014997;28;20251;-71
2020/12/25 04:49:48;;;;;;;7.03;1.90;;;;;;;;;;5023073;28;20202;-71
2020/12/25 04:52:13;;;;;;;6.33;1.50;;;;;;;;;;5014163;28;20193;-71
2020/12/25 04:54:38;;;;;;;4.17;0.63;;;;;;;;;;5023930;28;20244;-71
2020/12/25 04:57:04;;;;;;;3.67;0.60;;;;;;;;;;5016229;28;20280;-71
2020/12/25 04:59:30;;;;;;;6.70;0.60;;;;;;;;;;5023839;28;20997;-71
2020/12/25 05:01:56;;;;;;;8.07;1.67;;;;;;;;;;5012297;28;20558;-71
2020/12/25 05:04:25;;;;;;;3.93;0.50;;;;;;;;;;5021983;28;20182;-71
2020/12/25 05:06:51;;;;;;;2.53;0.50;;;;;;;;;;5012805;28;20210;-71
2020/12/25 05:09:20;;;;;;;6.90;0.67;;;;;;;;;;5023363;28;20612;-71
2020/12/25 05:11:50;;;;;;;4.17;0.70;;;;;;;;;;5015611;28;21718;-71
2020/12/25 05:14:16;;;;;;;2.97;0.50;;;;;;;;;;5022773;28;20560;-71
2020/12/25 05:16:41;;;;;;;6.93;0.50;;;;;;;;;;5019898;28;20221;-71
2020/12/25 05:19:08;;;;;;;3.23;0.57;;;;;;;;;;5019938;28;20213;-71
2020/12/25 05:21:38;;;;;;;4.73;0.80;;;;;;;;;;5022436;28;20225;-71
2020/12/25 05:24:06;;;;;;;5.37;0.47;;;;;;;;;;5014013;28;20190;-71
2020/12/25 05:26:32;;;;;;;8.20;0.60;;;;;;;;;;5023120;28;20595;-71
2020/12/25 05:28:58;;;;;;;10.13;0.90;;;;;;;;;;5014726;28;20190;-71
2020/12/25 05:31:23;;;;;;;6.27;0.50;;;;;;;;;;5024585;28;20653;-71
2020/12/25 05:33:49;;;;;;;4.37;0.70;;;;;;;;;;5015496;28;20194;-71
2020/12/25 05:36:15;;;;;;;7.87;1.00;;;;;;;;;;5022142;28;20312;-71
2020/12/25 05:38:47;;;;;;;9.87;1.20;;;;;;;;;;5013345;28;20218;-70
2020/12/25 05:41:13;;;;;;;5.57;1.07;;;;;;;;;;5021867;28;20229;-71
2020/12/25 05:43:39;;;;;;;6.50;0.80;;;;;;;;;;5014532;28;20190;-71
2020/12/25 05:46:04;;;;;;;6.17;0.73;;;;;;;;;;5022511;28;20198;-71
2020/12/25 05:48:32;;;;;;;7.87;0.60;;;;;;;;;;5016003;28;20194;-71
2020/12/25 05:50:57;;;;;;;3.63;0.53;;;;;;;;;;5023342;28;20234;-70
2020/12/25 05:53:23;;;;;;;4.93;0.70;;;;;;;;;;5020948;28;20496;-70
2020/12/25 05:55:48;;;;;;;2.77;0.53;;;;;;;;;;5009580;28;20973;-70
2020/12/25 05:58:15;;;;;;;2.80;0.40;;;;;;;;;;5017944;28;20220;-71
2020/12/25 06:00:42;;;;;;;6.67;0.67;;;;;;;;;;5007212;28;20684;-71
2020/12/25 06:03:13;;;;;;;3.17;0.70;;;;;;;;;;5017626;28;20198;-71
2020/12/25 06:05:41;;;;;;;3.03;0.87;;;;;;;;;;5007567;28;20201;-71
2020/12/25 06:08:36;;;;;;;7.53;0.90;;;;;;;;;;5016115;28;20198;-71
2020/12/25 06:11:04;;;;;;;2.20;0.93;;;;;;;;;;5007574;28;20206;-71
2020/12/25 06:13:42;;;;;;;11.27;0.77;;;;;;;;;;5017163;28;20240;-71
2020/12/25 06:16:14;;;;;;;4.40;0.80;;;;;;;;;;5006675;28;20289;-71
2020/12/25 06:18:51;;;;;;;8.37;0.80;;;;;;;;;;5015522;28;20224;-71
2020/12/25 06:21:23;;;;;;;4.83;0.60;;;;;;;;;;5007104;28;20564;-71
2020/12/25 06:23:49;;;;;;;9.20;0.90;;;;;;;;;;5018603;28;20198;-71
2020/12/25 06:26:18;;;;;;;2.87;0.70;;;;;;;;;;5007061;28;20209;-71
2020/12/25 06:28:43;;;;;;;5.70;0.67;;;;;;;;;;5017309;28;20634;-71
2020/12/25 06:31:30;;;;;;;5.70;0.80;;;;;;;;;;5006624;28;20205;-71
2020/12/25 06:33:55;;;;;;;7.83;0.53;;;;;;;;;;5014306;28;20190;-72
2020/12/25 06:36:28;;;;;;;5.67;0.90;;;;;;;;;;5007271;28;20242;-71
2020/12/25 06:38:53;;;;;;;8.57;1.00;;;;;;;;;;5018061;28;20222;-71
2020/12/25 06:41:22;;;;;;;6.70;0.50;;;;;;;;;;5011941;28;20197;-71
2020/12/25 06:43:49;;;;;;;9.47;1.00;;;;;;;;;;5016282;28;20724;-71
2020/12/25 06:46:27;;;;;;;8.63;1.10;;;;;;;;;;5017988;28;20205;-71
2020/12/25 06:48:52;;;;;;;2.93;0.70;;;;;;;;;;5006318;28;20218;-71
2020/12/25 06:51:21;;;;;;;4.27;0.80;;;;;;;;;;5016195;28;20216;-71
2020/12/25 06:53:46;;;;;;;7.80;0.83;;;;;;;;;;5007796;28;20217;-71
2020/12/25 06:56:19;;;;;;;5.97;0.67;;;;;;;;;;5017229;28;20206;-71
2020/12/25 06:58:47;;;;;;;6.03;0.83;;;;;;;;;;5006316;28;20256;-71
2020/12/25 07:01:14;;;;;;;9.13;1.13;;;;;;;;;;5015290;28;20610;-71
2020/12/25 07:03:40;;;;;;;4.70;0.67;;;;;;;;;;5006613;28;20198;-71
2020/12/25 07:06:09;;;;;;;7.70;1.20;;;;;;;;;;5015105;28;20224;-71
2020/12/25 07:08:47;;;;;;;12.70;1.00;;;;;;;;;;5006261;28;20273;-71
2020/12/25 07:11:13;;;;;;;8.93;0.90;;;;;;;;;;5013985;28;20240;-71
2020/12/25 07:13:39;;;;;;;12.30;1.30;;;;;;;;;;5005448;28;20198;-71
2020/12/25 07:16:04;;;;;;;10.10;1.13;;;;;;;;;;5013847;28;20197;-71
2020/12/25 07:18:30;;;;;;;6.70;0.93;;;;;;;;;;5003577;28;20214;-71
2020/12/25 07:21:00;;;;;;;9.20;1.33;;;;;;;;;;4317143;28;10000864;-71
2020/12/25 07:23:26;;;;;;;11.13;0.90;;;;;;;;;;5026819;28;20234;-71
2020/12/25 07:26:02;;;;;;;9.10;0.80;;;;;;;;;;5006445;28;20281;-71
2020/12/25 07:28:29;;;;;;;12.57;1.00;;;;;;;;;;5013164;28;20189;-71
2020/12/25 07:30:56;;;;;;;10.93;1.23;;;;;;;;;;5007222;28;20228;-71
2020/12/25 07:33:22;;;;;;;8.10;1.10;;;;;;;;;;5011438;28;20530;-71
2020/12/25 07:35:48;;;;;;;9.67;1.00;;;;;;;;;;5006666;28;20237;-71
2020/12/25 07:38:14;;;;;;;7.60;0.90;;;;;;;;;;5012781;28;20214;-71
2020/12/25 07:40:44;;;;;;;8.47;0.83;;;;;;;;;;5010766;28;20206;-71
2020/12/25 07:43:10;;;;;;;11.70;1.20;;;;;;;;;;5014461;28;20198;-71
2020/12/25 07:45:37;;;;;;;12.57;1.20;;;;;;;;;;5006849;28;20189;-71
2020/12/25 07:48:03;;;;;;;11.53;1.20;;;;;;;;;;5014667;28;20213;-71
2020/12/25 07:50:39;;;;;;;14.73;1.10;;;;;;;;;;5009862;28;20197;-71
2020/12/25 07:53:10;;;;;;;10.77;1.03;;;;;;;;;;5024932;28;20284;-71
2020/12/25 07:55:36;;;;;;;8.77;1.40;;;;;;;;;;5009716;28;21105;-71
2020/12/25 07:58:02;;;;;;;8.33;1.13;;;;;;;;;;5016129;28;20849;-71
2020/12/25 08:00:28;;;;;;;10.63;1.00;;;;;;;;;;5014242;28;20174;-71
2020/12/25 08:02:54;;;;;;;10.67;2.07;;;;;;;;;;5007144;28;20675;-71
2020/12/25 08:05:19;;;;;;;12.37;1.40;;;;;;;;;;5013657;28;20190;-71
2020/12/25 08:07:45;;;;;;;7.67;1.30;;;;;;;;;;5001956;28;20221;-72
2020/12/25 08:10:13;;;;;;;7.83;1.20;;;;;;;;;;5014625;28;20544;-71
2020/12/25 08:12:44;;;;;;;9.67;1.60;;;;;;;;;;5007093;28;20612;-71
2020/12/25 08:15:11;;;;;;;9.03;2.00;;;;;;;;;;5016389;28;20556;-71
2020/12/25 08:17:37;;;;;;;10.27;1.30;;;;;;;;;;5004018;28;20213;-71
2020/12/25 08:20:03;;;;;;;8.33;0.90;;;;;;;;;;5014347;28;20208;-71
2020/12/25 08:22:29;;;;;;;11.57;1.17;;;;;;;;;;5007286;28;20206;-71
2020/12/25 08:24:55;;;;;;;7.50;0.93;;;;;;;;;;5015076;28;20665;-71
2020/12/25 08:27:20;;;;;;;8.23;1.13;;;;;;;;;;5006823;28;20190;-71
2020/12/25 08:29:48;;;;;;;4.80;0.90;;;;;;;;;;5013750;28;20205;-71
2020/12/25 08:32:14;;;;;;;8.73;1.13;;;;;;;;;;5009365;28;20624;-71
2020/12/25 08:34:39;;;;;;;12.20;1.23;;;;;;;;;;5003820;28;20948;-71
2020/12/25 08:37:07;;;;;;;15.50;1.47;;;;;;;;;;5008418;28;20202;-71
2020/12/25 08:39:33;;;;;;;12.07;1.10;;;;;;;;;;4995771;28;20827;-71
2020/12/25 08:41:59;;;;;;;7.20;0.90;;;;;;;;;;5008503;28;20195;-71
2020/12/25 08:44:25;;;;;;;11.57;0.70;;;;;;;;;;4998844;28;20657;-71
2020/12/25 08:47:05;;;;;;;6.40;0.80;;;;;;;;;;5011172;28;20793;-71
2020/12/25 08:49:30;;;;;;;7.57;0.93;;;;;;;;;;4991223;28;20182;-71
2020/12/25 08:51:55;;;;;;;8.83;1.00;;;;;;;;;;5010127;28;22894;-71
2020/12/25 08:54:28;;;;;;;8.23;1.10;;;;;;;;;;5001568;28;20182;-71
2020/12/25 08:56:54;;;;;;;6.77;0.90;;;;;;;;;;5011560;28;20565;-71
2020/12/25 08:59:20;;;;;;;5.73;1.17;;;;;;;;;;5003011;28;20232;-71
2020/12/25 09:01:47;;;;;;;9.77;1.20;;;;;;;;;;5012543;28;20341;-71
2020/12/25 09:04:22;;;;;;;6.07;1.00;;;;;;;;;;5004998;28;20194;-71
2020/12/25 09:06:51;;;;;;;9.77;1.10;;;;;;;;;;5009824;28;20302;-71
2020/12/25 09:09:16;;;;;;;8.20;1.07;;;;;;;;;;5009413;28;20193;-71
2020/12/25 09:11:41;;;;;;;10.50;2.20;;;;;;;;;;5001942;28;20186;-71
2020/12/25 09:14:07;;;;;;;14.70;4.10;;;;;;;;;;5015940;28;20190;-71
2020/12/25 09:16:32;;;;;;;8.83;1.30;;;;;;;;;;5007097;28;20228;-71
2020/12/25 09:18:59;;;;;;;13.17;1.53;;;;;;;;;;5012782;28;20573;-72
2020/12/25 09:21:27;;;;;;;4.17;1.10;;;;;;;;;;5005677;28;20190;-71
2020/12/25 09:23:53;;;;;;;10.00;1.27;;;;;;;;;;5013330;28;20194;-71
2020/12/25 09:26:18;;;;;;;6.07;0.80;;;;;;;;;;5007218;28;20198;-71
2020/12/25 09:28:44;;;;;;;9.37;1.77;;;;;;;;;;5018161;28;20193;-71
2020/12/25 09:31:12;;;;;;;7.93;1.17;;;;;;;;;;5012972;28;20182;-71
2020/12/25 09:33:38;;;;;;;6.50;1.00;;;;;;;;;;5018340;28;20193;-71
2020/12/25 09:36:05;;;;;;;3.43;0.83;;;;;;;;;;5010621;28;20916;-71
2020/12/25 09:38:30;;;;;;;10.83;0.97;;;;;;;;;;5016973;28;20198;-71
2020/12/25 09:40:56;;;;;;;6.20;0.70;;;;;;;;;;5034768;28;20178;-71
2020/12/25 09:43:21;;;;;;;5.37;0.80;;;;;;;;;;5009019;28;20200;-71
2020/12/25 09:45:46;;;;;;;5.10;1.10;;;;;;;;;;5016018;28;20711;-71
2020/12/25 09:48:13;;;;;;;8.40;1.00;;;;;;;;;;5009960;28;20190;-71
2020/12/25 09:50:39;;;;;;;8.00;1.10;;;;;;;;;;5018846;28;20190;-71
2020/12/25 09:53:04;;;;;;;6.27;0.93;;;;;;;;;;5013238;28;20205;-71
2020/12/25 09:55:35;;;;;;;8.53;1.40;;;;;;;;;;5023384;28;20198;-71
2020/12/25 09:58:01;;;;;;;5.97;0.70;;;;;;;;;;5012636;28;20336;-71
2020/12/25 10:00:26;;;;;;;7.50;1.00;;;;;;;;;;5020106;28;20642;-72
2020/12/25 10:02:51;;;;;;;9.40;1.03;;;;;;;;;;5011360;28;20190;-72
2020/12/25 10:05:17;;;;;;;5.13;0.70;;;;;;;;;;5021689;28;20194;-72
2020/12/25 10:07:42;;;;;;;7.87;0.97;;;;;;;;;;5011899;28;20205;-72
2020/12/25 10:10:08;;;;;;;6.50;1.00;;;;;;;;;;5021313;28;20488;-72
2020/12/25 10:12:33;;;;;;;6.10;1.70;;;;;;;;;;5021886;28;20212;-71
2020/12/25 10:14:59;;;;;;;12.07;1.40;;;;;;;;;;5011843;28;20190;-71
2020/12/25 10:17:24;;;;;;;10.23;1.00;;;;;;;;;;5020033;28;20186;-71
2020/12/25 10:19:50;;;;;;;6.57;0.83;;;;;;;;;;5013552;28;20202;-71
2020/12/25 10:22:16;;;;;;;7.90;1.03;;;;;;;;;;5018512;28;20189;-71
2020/12/25 10:24:41;;;;;;;7.03;1.37;;;;;;;;;;5011915;28;20186;-71
2020/12/25 10:27:06;;;;;;;8.83;1.03;;;;;;;;;;5019741;28;20197;-71
2020/12/25 10:29:32;;;;;;;5.63;1.30;;;;;;;;;;5012918;28;20183;-71
2020/12/25 10:31:57;;;;;;;8.47;0.97;;;;;;;;;;5018061;28;20526;-71
2020/12/25 10:34:23;;;;;;;10.60;1.83;;;;;;;;;;5012630;28;20190;-71
2020/12/25 10:36:48;;;;;;;6.27;0.90;;;;;;;;;;5018746;28;20218;-71
2020/12/25 10:39:14;;;;;;;5.83;0.80;;;;;;;;;;5015468;28;20210;-71
2020/12/25 10:41:40;;;;;;;5.73;1.30;;;;;;;;;;5015475;28;20213;-71
2020/12/25 10:44:06;;;;;;;6.73;1.30;;;;;;;;;;5021030;28;20208;-71
2020/12/25 10:46:32;;;;;;;10.07;1.20;;;;;;;;;;5011093;28;20185;-71
2020/12/25 10:48:57;;;;;;;8.73;1.27;;;;;;;;;;5020839;28;20188;-71
2020/12/25 10:51:22;;;;;;;10.20;1.37;;;;;;;;;;5009144;28;20269;-71
2020/12/25 10:53:48;;;;;;;11.07;1.27;;;;;;;;;;5021646;28;20182;-71
2020/12/25 10:56:24;;;;;;;8.30;1.20;;;;;;;;;;5012204;28;20180;-71
2020/12/25 10:58:50;;;;;;;6.33;1.00;;;;;;;;;;5021787;28;20552;-71
2020/12/25 11:01:23;;;;;;;7.80;0.93;;;;;;;;;;5010079;28;20221;-71
2020/12/25 11:03:49;;;;;;;9.33;0.90;;;;;;;;;;5020964;28;20637;-71
2020/12/25 11:06:14;;;;;;;6.80;0.80;;;;;;;;;;5010240;28;20293;-71
2020/12/25 11:08:40;;;;;;;10.43;1.27;;;;;;;;;;5020851;28;20182;-71
2020/12/25 11:11:05;;;;;;;6.03;0.70;;;;;;;;;;5009005;28;20237;-72
2020/12/25 11:13:33;;;;;;;6.83;0.90;;;;;;;;;;5020270;28;20273;-71
2020/12/25 11:15:58;;;;;;;5.87;0.80;;;;;;;;;;5020028;28;20221;-70
2020/12/25 11:18:23;;;;;;;8.03;0.80;;;;;;;;;;5013360;28;20621;-71
2020/12/25 11:20:49;;;;;;;9.73;1.80;;;;;;;;;;5018009;28;20228;-71
2020/12/25 11:23:14;;;;;;;8.10;0.93;;;;;;;;;;5010347;28;20277;-71
2020/12/25 11:25:39;;;;;;;8.93;1.37;;;;;;;;;;5016870;28;20251;-71
2020/12/25 11:28:05;;;;;;;7.73;0.83;;;;;;;;;;5008835;28;20636;-71
2020/12/25 11:30:30;;;;;;;8.50;0.90;;;;;;;;;;5018587;28;20205;-71
2020/12/25 11:32:55;;;;;;;7.27;1.30;;;;;;;;;;5012296;28;20649;-71
2020/12/25 11:35:20;;;;;;;8.83;1.10;;;;;;;;;;5019817;28;20225;-71
2020/12/25 11:37:46;;;;;;;4.13;0.73;;;;;;;;;;5010960;28;20259;-72
2020/12/25 11:40:11;;;;;;;11.27;1.30;;;;;;;;;;5019949;28;20182;-71
2020/12/25 11:42:36;;;;;;;6.47;0.90;;;;;;;;;;5017858;28;20197;-72
2020/12/25 11:45:02;;;;;;;8.53;0.80;;;;;;;;;;5008939;28;20189;-72
2020/12/25 11:47:28;;;;;;;6.87;0.70;;;;;;;;;;5020709;28;20186;-71
2020/12/25 11:49:54;;;;;;;8.47;0.73;;;;;;;;;;5008287;28;20213;-71
2020/12/25 11:52:19;;;;;;;7.63;0.83;;;;;;;;;;5011132;28;20193;-73
2020/12/25 11:54:44;;;;;;;4.87;0.80;;;;;;;;;;5007325;28;20280;-73
2020/12/25 11:57:10;;;;;;;9.87;1.27;;;;;;;;;;5017438;28;20232;-73
2020/12/25 11:59:36;;;;;;;8.27;0.90;;;;;;;;;;5006457;28;20221;-72
2020/12/25 12:02:02;;;;;;;6.03;0.80;;;;;;;;;;5017404;28;20197;-73
2020/12/25 12:04:27;;;;;;;7.30;0.80;;;;;;;;;;5007840;28;20183;-72
2020/12/25 12:06:56;;;;;;;7.37;0.93;;;;;;;;;;5032086;28;20448;-73
2020/12/25 12:09:22;;;;;;;8.93;1.20;;;;;;;;;;5008336;28;20277;-73
2020/12/25 12:11:47;;;;;;;4.60;0.67;;;;;;;;;;5019458;28;21450;-73
2020/12/25 12:14:13;;;;;;;5.07;1.10;;;;;;;;;;5034833;28;20255;-73
2020/12/25 12:16:38;;;;;;;2.77;0.70;;;;;;;;;;5010549;28;20181;-73
2020/12/25 12:19:03;;;;;;;12.57;0.90;;;;;;;;;;5019772;28;20206;-73
2020/12/25 12:21:29;;;;;;;10.57;1.40;;;;;;;;;;5011775;28;20653;-73
2020/12/25 12:23:54;;;;;;;7.80;1.77;;;;;;;;;;5019288;28;20210;-70
2020/12/25 12:26:19;;;;;;;9.00;1.03;;;;;;;;;;5010653;28;20192;-71
2020/12/25 12:28:45;;;;;;;11.00;2.60;;;;;;;;;;5016805;28;20190;-72
2020/12/25 12:31:10;;;;;;;7.53;1.10;;;;;;;;;;5011475;28;20759;-72
2020/12/25 12:33:37;;;;;;;6.73;1.20;;;;;;;;;;5016599;28;20669;-72
2020/12/25 12:36:03;;;;;;;6.37;0.80;;;;;;;;;;5008476;28;20233;-72
2020/12/25 12:38:29;;;;;;;5.10;0.63;;;;;;;;;;5017170;28;20202;-72
2020/12/25 12:40:54;;;;;;;5.80;0.73;;;;;;;;;;5012924;28;20520;-70
2020/12/25 12:43:19;;;;;;;10.07;4.40;;;;;;;;;;5011118;28;20334;-71
2020/12/25 12:45:45;;;;;;;9.90;2.80;;;;;;;;;;5018220;28;20218;-72
2020/12/25 12:48:10;;;;;;;6.63;0.97;;;;;;;;;;5012724;28;20687;-70
2020/12/25 12:50:35;;;;;;;7.23;0.90;;;;;;;;;;5023190;28;20194;-71
2020/12/25 12:53:01;;;;;;;8.83;2.27;;;;;;;;;;5008623;28;20201;-71
2020/12/25 12:55:26;;;;;;;8.20;1.43;;;;;;;;;;5017521;28;21059;-71
2020/12/25 12:57:51;;;;;;;6.90;1.00;;;;;;;;;;5007236;28;20221;-71
2020/12/25 13:00:17;;;;;;;7.10;2.10;;;;;;;;;;5019543;28;20199;-71
2020/12/25 13:02:42;;;;;;;6.47;1.80;;;;;;;;;;5008735;28;20751;-71
2020/12/25 13:05:07;;;;;;;9.67;1.27;;;;;;;;;;5020255;28;20244;-71
2020/12/25 13:07:32;;;;;;;10.23;1.40;;;;;;;;;;5007916;28;20815;-71
2020/12/25 13:09:58;;;;;;;10.97;0.80;;;;;;;;;;5015667;28;20201;-71
2020/12/25 13:12:23;;;;;;;7.23;1.50;;;;;;;;;;5018247;28;20182;-71
2020/12/25 13:14:49;;;;;;;12.17;3.70;;;;;;;;;;5010784;28;20268;-71
2020/12/25 13:17:14;;;;;;;10.40;3.63;;;;;;;;;;5019728;28;20196;-71
2020/12/25 13:19:39;;;;;;;7.73;1.40;;;;;;;;;;5009879;28;20674;-71
2020/12/25 13:22:05;;;;;;;4.67;1.00;;;;;;;;;;5014562;28;20202;-71
2020/12/25 13:24:30;;;;;;;9.43;0.80;;;;;;;;;;5009115;28;20218;-71
2020/12/25 13:26:58;;;;;;;8.03;1.23;;;;;;;;;;5011052;28;20178;-71
2020/12/25 13:29:24;;;;;;;5.90;0.90;;;;;;;;;;5008677;28;20225;-71
2020/12/25 13:31:50;;;;;;;4.27;0.67;;;;;;;;;;5016286;28;20580;-71
2020/12/25 13:34:16;;;;;;;11.00;1.63;;;;;;;;;;5002133;28;20197;-71
2020/12/25 13:36:41;;;;;;;5.00;0.90;;;;;;;;;;5007871;28;20324;-71
2020/12/25 13:39:07;;;;;;;6.50;0.70;;;;;;;;;;5007000;28;20214;-71
2020/12/25 13:41:32;;;;;;;6.77;1.13;;;;;;;;;;5009488;28;20225;-71
2020/12/25 13:43:59;;;;;;;7.23;1.10;;;;;;;;;;5011359;28;20256;-71
2020/12/25 13:46:25;;;;;;;6.50;1.30;;;;;;;;;;4995754;28;20197;-71
2020/12/25 13:48:50;;;;;;;7.17;0.90;;;;;;;;;;5006876;28;21149;-71
2020/12/25 13:51:17;;;;;;;6.97;1.23;;;;;;;;;;5006073;28;20286;-71
2020/12/25 13:53:44;;;;;;;6.23;0.90;;;;;;;;;;5014603;28;20201;-71
2020/12/25 13:56:09;;;;;;;6.33;0.80;;;;;;;;;;5008337;28;20206;-70
2020/12/25 13:58:35;;;;;;;7.17;1.00;;;;;;;;;;5012416;28;20601;-72
2020/12/25 14:01:04;;;;;;;12.67;1.73;;;;;;;;;;5007705;28;20228;-71
2020/12/25 14:03:33;;;;;;;9.20;1.53;;;;;;;;;;5016847;28;20261;-70
2020/12/25 14:05:59;;;;;;;9.83;1.10;;;;;;;;;;5007560;28;20194;-71
2020/12/25 14:08:25;;;;;;;7.00;1.37;;;;;;;;;;5018967;28;20193;-71
2020/12/25 14:10:51;;;;;;;9.67;1.27;;;;;;;;;;5009615;28;20186;-71
2020/12/25 14:13:16;;;;;;;6.23;1.07;;;;;;;;;;5013652;28;20193;-71
2020/12/25 14:15:42;;;;;;;4.00;0.70;;;;;;;;;;5012676;28;20204;-71
2020/12/25 14:18:07;;;;;;;7.00;0.83;;;;;;;;;;5006750;28;20236;-71
2020/12/25 14:20:32;;;;;;;7.47;1.23;;;;;;;;;;5012552;28;20663;-71
2020/12/25 14:22:58;;;;;;;10.07;0.90;;;;;;;;;;5003290;28;20277;-71
2020/12/25 14:25:23;;;;;;;5.40;1.07;;;;;;;;;;5017774;28;20194;-71
2020/12/25 14:27:48;;;;;;;5.33;1.30;;;;;;;;;;5006564;28;20646;-71
2020/12/25 14:30:13;;;;;;;9.97;1.40;;;;;;;;;;5013519;28;20256;-70
2020/12/25 14:32:39;;;;;;;7.57;1.17;;;;;;;;;;5004888;28;20641;-71